Aviation Digital Data Service (ADDS)

Output produced by METARs form (0753 UTC 31 August 2016)
found at http://aviationweather.gov/adds/metars/
 
KISP 310711Z 3107/0106 19005KT P6SM FEW010 SCT040 BKN250 
     TEMPO 3107/3109 BKN015 
     FM310900 22005KT P6SM SCT010 SCT040 BKN250 
     TEMPO 3109/3113 BKN006 
     FM311400 21007KT P6SM SCT030 BKN250 
     FM311800 19010KT P6SM SCT050 BKN250 
     FM312200 18008KT P6SM SCT050 BKN150 
     FM010200 19006KT P6SM BKN100